sensor_id;sensor_type;location;lat;lon;timestamp;temperature;humidity
5802;DHT22;2927;49.366;8.530;2023-02-24T00:01:25;9.20;99.90
5802;DHT22;2927;49.366;8.530;2023-02-24T00:03:57;9.20;99.90
5802;DHT22;2927;49.366;8.530;2023-02-24T00:06:27;9.20;99.90
5802;DHT22;2927;49.366;8.530;2023-02-24T00:09:01;9.10;99.90
5802;DHT22;2927;49.366;8.530;2023-02-24T00:11:30;9.10;99.90
5802;DHT22;2927;49.366;8.530;2023-02-24T00:13:56;9.20;99.90
5802;DHT22;2927;49.366;8.530;2023-02-24T00:16:22;9.20;92.90
5802;DHT22;2927;49.366;8.530;2023-02-24T00:18:50;9.10;99.90
5802;DHT22;2927;49.366;8.530;2023-02-24T00:21:16;9.10;95.30
5802;DHT22;2927;49.366;8.530;2023-02-24T00:23:44;9.10;64.80
5802;DHT22;2927;49.366;8.530;2023-02-24T00:26:12;9.10;82.20
5802;DHT22;2927;49.366;8.530;2023-02-24T00:28:38;9.10;34.10
5802;DHT22;2927;49.366;8.530;2023-02-24T00:31:15;9.10;33.30
5802;DHT22;2927;49.366;8.530;2023-02-24T00:33:42;9.10;37.80
5802;DHT22;2927;49.366;8.530;2023-02-24T00:36:13;9.10;43.40
5802;DHT22;2927;49.366;8.530;2023-02-24T00:38:41;9.10;36.00
5802;DHT22;2927;49.366;8.530;2023-02-24T00:41:15;9.10;10.00
5802;DHT22;2927;49.366;8.530;2023-02-24T00:43:42;9.10;23.60
5802;DHT22;2927;49.366;8.530;2023-02-24T00:46:14;9.10;1.00
5802;DHT22;2927;49.366;8.530;2023-02-24T00:48:48;9.10;1.00
5802;DHT22;2927;49.366;8.530;2023-02-24T00:51:16;9.00;1.00
5802;DHT22;2927;49.366;8.530;2023-02-24T00:53:43;9.00;1.00
5802;DHT22;2927;49.366;8.530;2023-02-24T00:56:10;9.00;1.00
5802;DHT22;2927;49.366;8.530;2023-02-24T00:58:41;9.00;1.00
5802;DHT22;2927;49.366;8.530;2023-02-24T01:01:19;8.90;1.00
5802;DHT22;2927;49.366;8.530;2023-02-24T01:03:46;8.90;1.00
5802;DHT22;2927;49.366;8.530;2023-02-24T01:06:13;8.90;1.00
5802;DHT22;2927;49.366;8.530;2023-02-24T01:08:40;8.90;1.00
5802;DHT22;2927;49.366;8.530;2023-02-24T01:11:12;8.90;1.00
5802;DHT22;2927;49.366;8.530;2023-02-24T01:13:57;8.90;1.00
5802;DHT22;2927;49.366;8.530;2023-02-24T01:16:23;8.80;1.00
5802;DHT22;2927;49.366;8.530;2023-02-24T01:18:49;8.80;1.00
5802;DHT22;2927;49.366;8.530;2023-02-24T01:21:17;8.70;1.00
5802;DHT22;2927;49.366;8.530;2023-02-24T01:23:49;8.70;1.00
5802;DHT22;2927;49.366;8.530;2023-02-24T01:26:16;8.60;1.00
5802;DHT22;2927;49.366;8.530;2023-02-24T01:28:42;8.60;1.00
5802;DHT22;2927;49.366;8.530;2023-02-24T01:31:13;8.50;1.00
5802;DHT22;2927;49.366;8.530;2023-02-24T01:33:41;8.50;1.00
5802;DHT22;2927;49.366;8.530;2023-02-24T01:36:23;8.40;1.00
5802;DHT22;2927;49.366;8.530;2023-02-24T01:38:51;8.40;1.00
5802;DHT22;2927;49.366;8.530;2023-02-24T01:41:22;8.40;1.00
5802;DHT22;2927;49.366;8.530;2023-02-24T01:44:00;8.30;1.00
5802;DHT22;2927;49.366;8.530;2023-02-24T01:46:28;8.30;1.00
5802;DHT22;2927;49.366;8.530;2023-02-24T01:48:56;8.30;1.00
5802;DHT22;2927;49.366;8.530;2023-02-24T01:51:25;8.30;1.00
5802;DHT22;2927;49.366;8.530;2023-02-24T01:53:54;8.30;1.00
5802;DHT22;2927;49.366;8.530;2023-02-24T01:56:19;8.30;1.00
5802;DHT22;2927;49.366;8.530;2023-02-24T01:58:45;8.30;1.00
5802;DHT22;2927;49.366;8.530;2023-02-24T02:01:15;8.20;1.00
5802;DHT22;2927;49.366;8.530;2023-02-24T02:03:41;8.30;1.00
5802;DHT22;2927;49.366;8.530;2023-02-24T02:06:11;8.20;1.00
5802;DHT22;2927;49.366;8.530;2023-02-24T02:08:40;8.30;1.00
5802;DHT22;2927;49.366;8.530;2023-02-24T02:11:12;8.30;1.00
5802;DHT22;2927;49.366;8.530;2023-02-24T02:13:42;8.40;1.00
5802;DHT22;2927;49.366;8.530;2023-02-24T02:29:56;8.20;20.80
5802;DHT22;2927;49.366;8.530;2023-02-24T02:38:05;8.20;40.00
5802;DHT22;2927;49.366;8.530;2023-02-24T02:40:37;8.20;49.60
5802;DHT22;2927;49.366;8.530;2023-02-24T02:45:57;8.30;82.40
5802;DHT22;2927;49.366;8.530;2023-02-24T02:48:54;8.30;72.20
5802;DHT22;2927;49.366;8.530;2023-02-24T02:51:26;8.20;94.70
5802;DHT22;2927;49.366;8.530;2023-02-24T02:54:11;8.20;99.90
5802;DHT22;2927;49.366;8.530;2023-02-24T02:56:48;8.30;99.90
5802;DHT22;2927;49.366;8.530;2023-02-24T02:59:16;8.20;99.90
5802;DHT22;2927;49.366;8.530;2023-02-24T03:01:47;8.20;99.90
5802;DHT22;2927;49.366;8.530;2023-02-24T03:04:14;8.20;99.90
5802;DHT22;2927;49.366;8.530;2023-02-24T03:06:58;8.10;99.90
5802;DHT22;2927;49.366;8.530;2023-02-24T03:09:28;8.20;99.90
5802;DHT22;2927;49.366;8.530;2023-02-24T03:11:57;8.30;99.90
5802;DHT22;2927;49.366;8.530;2023-02-24T03:14:29;8.30;99.90
5802;DHT22;2927;49.366;8.530;2023-02-24T03:16:58;8.40;74.20
5802;DHT22;2927;49.366;8.530;2023-02-24T03:19:31;8.40;27.50
5802;DHT22;2927;49.366;8.530;2023-02-24T03:22:08;8.40;20.00
5802;DHT22;2927;49.366;8.530;2023-02-24T03:24:37;8.40;23.20
5802;DHT22;2927;49.366;8.530;2023-02-24T03:27:28;8.30;5.20
5802;DHT22;2927;49.366;8.530;2023-02-24T03:30:03;8.20;61.70
5802;DHT22;2927;49.366;8.530;2023-02-24T03:32:39;8.20;96.60
5802;DHT22;2927;49.366;8.530;2023-02-24T03:35:26;8.10;89.70
5802;DHT22;2927;49.366;8.530;2023-02-24T03:37:54;8.10;99.90
5802;DHT22;2927;49.366;8.530;2023-02-24T03:40:22;8.10;99.90
5802;DHT22;2927;49.366;8.530;2023-02-24T03:42:59;8.20;99.90
5802;DHT22;2927;49.366;8.530;2023-02-24T03:45:36;8.20;58.60
5802;DHT22;2927;49.366;8.530;2023-02-24T03:48:03;8.20;59.90
5802;DHT22;2927;49.366;8.530;2023-02-24T03:50:29;8.10;68.40
5802;DHT22;2927;49.366;8.530;2023-02-24T03:59:17;8.10;99.90
5802;DHT22;2927;49.366;8.530;2023-02-24T04:04:52;8.00;87.90
5802;DHT22;2927;49.366;8.530;2023-02-24T04:14:56;7.90;99.90
5802;DHT22;2927;49.366;8.530;2023-02-24T04:17:29;7.90;99.90
5802;DHT22;2927;49.366;8.530;2023-02-24T04:19:59;7.90;99.90
5802;DHT22;2927;49.366;8.530;2023-02-24T04:22:34;7.90;99.90
5802;DHT22;2927;49.366;8.530;2023-02-24T04:25:00;7.90;99.90
5802;DHT22;2927;49.366;8.530;2023-02-24T04:27:30;7.80;99.90
5802;DHT22;2927;49.366;8.530;2023-02-24T04:29:57;7.80;99.90
5802;DHT22;2927;49.366;8.530;2023-02-24T04:32:26;7.80;99.90
5802;DHT22;2927;49.366;8.530;2023-02-24T04:34:52;7.90;99.90
5802;DHT22;2927;49.366;8.530;2023-02-24T04:37:19;7.90;99.90
5802;DHT22;2927;49.366;8.530;2023-02-24T04:39:48;7.90;99.90
5802;DHT22;2927;49.366;8.530;2023-02-24T04:42:16;8.00;77.00
5802;DHT22;2927;49.366;8.530;2023-02-24T04:44:44;8.00;24.10
5802;DHT22;2927;49.366;8.530;2023-02-24T04:47:10;8.00;41.60
5802;DHT22;2927;49.366;8.530;2023-02-24T04:49:36;8.00;16.80
5802;DHT22;2927;49.366;8.530;2023-02-24T04:52:06;7.90;22.50
5802;DHT22;2927;49.366;8.530;2023-02-24T04:54:34;7.90;83.20
5802;DHT22;2927;49.366;8.530;2023-02-24T04:56:59;8.00;88.00
5802;DHT22;2927;49.366;8.530;2023-02-24T04:59:26;8.00;48.80
5802;DHT22;2927;49.366;8.530;2023-02-24T05:01:51;8.00;37.30
5802;DHT22;2927;49.366;8.530;2023-02-24T05:04:19;8.10;1.00
5802;DHT22;2927;49.366;8.530;2023-02-24T05:06:45;8.10;1.00
5802;DHT22;2927;49.366;8.530;2023-02-24T05:09:16;8.00;1.00
5802;DHT22;2927;49.366;8.530;2023-02-24T05:11:43;7.90;1.00
5802;DHT22;2927;49.366;8.530;2023-02-24T05:14:10;7.90;1.00
5802;DHT22;2927;49.366;8.530;2023-02-24T05:16:43;7.90;2.80
5802;DHT22;2927;49.366;8.530;2023-02-24T05:19:10;7.90;1.00
5802;DHT22;2927;49.366;8.530;2023-02-24T05:21:54;7.80;45.00
5802;DHT22;2927;49.366;8.530;2023-02-24T05:24:26;7.90;43.00
5802;DHT22;2927;49.366;8.530;2023-02-24T05:26:54;7.90;75.00
5802;DHT22;2927;49.366;8.530;2023-02-24T05:29:33;8.00;56.40
5802;DHT22;2927;49.366;8.530;2023-02-24T05:31:59;8.00;1.00
5802;DHT22;2927;49.366;8.530;2023-02-24T05:34:26;8.00;1.00
5802;DHT22;2927;49.366;8.530;2023-02-24T05:36:52;8.00;1.00
5802;DHT22;2927;49.366;8.530;2023-02-24T05:39:19;8.00;1.00
5802;DHT22;2927;49.366;8.530;2023-02-24T05:41:47;8.00;1.00
5802;DHT22;2927;49.366;8.530;2023-02-24T05:44:20;8.00;1.00
5802;DHT22;2927;49.366;8.530;2023-02-24T05:46:51;8.10;1.00
5802;DHT22;2927;49.366;8.530;2023-02-24T05:49:22;8.10;1.00
5802;DHT22;2927;49.366;8.530;2023-02-24T05:51:49;8.20;1.00
5802;DHT22;2927;49.366;8.530;2023-02-24T05:54:33;8.20;1.00
5802;DHT22;2927;49.366;8.530;2023-02-24T05:57:14;8.20;1.00
5802;DHT22;2927;49.366;8.530;2023-02-24T05:59:42;8.20;1.00
5802;DHT22;2927;49.366;8.530;2023-02-24T06:02:11;8.30;1.00
5802;DHT22;2927;49.366;8.530;2023-02-24T06:04:39;8.30;1.00
5802;DHT22;2927;49.366;8.530;2023-02-24T06:07:23;8.30;1.00
5802;DHT22;2927;49.366;8.530;2023-02-24T06:09:51;8.30;1.00
5802;DHT22;2927;49.366;8.530;2023-02-24T06:12:19;8.30;1.00
5802;DHT22;2927;49.366;8.530;2023-02-24T06:14:45;8.20;1.00
5802;DHT22;2927;49.366;8.530;2023-02-24T06:17:12;8.30;1.00
5802;DHT22;2927;49.366;8.530;2023-02-24T06:19:39;8.20;1.00
5802;DHT22;2927;49.366;8.530;2023-02-24T06:22:06;8.20;1.00
5802;DHT22;2927;49.366;8.530;2023-02-24T06:24:36;8.10;1.00
5802;DHT22;2927;49.366;8.530;2023-02-24T06:27:04;8.10;1.00
5802;DHT22;2927;49.366;8.530;2023-02-24T06:29:36;8.10;1.00
5802;DHT22;2927;49.366;8.530;2023-02-24T06:32:03;8.10;1.00
5802;DHT22;2927;49.366;8.530;2023-02-24T06:34:33;8.10;1.00
5802;DHT22;2927;49.366;8.530;2023-02-24T06:37:00;8.00;1.00
5802;DHT22;2927;49.366;8.530;2023-02-24T06:39:28;7.90;1.00
5802;DHT22;2927;49.366;8.530;2023-02-24T06:41:54;7.90;1.00
5802;DHT22;2927;49.366;8.530;2023-02-24T06:44:19;7.70;1.00
5802;DHT22;2927;49.366;8.530;2023-02-24T06:46:45;7.70;35.00
5802;DHT22;2927;49.366;8.530;2023-02-24T06:49:11;7.60;79.50
5802;DHT22;2927;49.366;8.530;2023-02-24T06:51:37;7.50;99.90
5802;DHT22;2927;49.366;8.530;2023-02-24T06:54:04;7.50;99.90
5802;DHT22;2927;49.366;8.530;2023-02-24T06:56:31;7.50;99.90
5802;DHT22;2927;49.366;8.530;2023-02-24T06:59:03;7.50;99.90
5802;DHT22;2927;49.366;8.530;2023-02-24T07:01:31;7.50;99.90
5802;DHT22;2927;49.366;8.530;2023-02-24T07:03:59;7.60;99.90
5802;DHT22;2927;49.366;8.530;2023-02-24T07:06:44;7.70;99.90
5802;DHT22;2927;49.366;8.530;2023-02-24T07:09:12;7.60;99.90
5802;DHT22;2927;49.366;8.530;2023-02-24T07:11:43;7.60;99.90
5802;DHT22;2927;49.366;8.530;2023-02-24T07:14:16;7.60;99.90
5802;DHT22;2927;49.366;8.530;2023-02-24T07:16:42;7.60;99.90
5802;DHT22;2927;49.366;8.530;2023-02-24T07:19:11;7.60;99.90
5802;DHT22;2927;49.366;8.530;2023-02-24T07:21:39;7.70;99.90
5802;DHT22;2927;49.366;8.530;2023-02-24T07:24:09;7.70;99.90
5802;DHT22;2927;49.366;8.530;2023-02-24T07:26:38;7.70;92.20
5802;DHT22;2927;49.366;8.530;2023-02-24T07:29:08;7.70;96.40
5802;DHT22;2927;49.366;8.530;2023-02-24T07:31:36;7.80;99.90
5802;DHT22;2927;49.366;8.530;2023-02-24T07:34:02;8.00;93.80
5802;DHT22;2927;49.366;8.530;2023-02-24T07:36:28;8.00;1.00
5802;DHT22;2927;49.366;8.530;2023-02-24T07:39:04;8.00;1.00
5802;DHT22;2927;49.366;8.530;2023-02-24T07:41:33;8.10;1.00
5802;DHT22;2927;49.366;8.530;2023-02-24T07:43:59;8.10;1.00
5802;DHT22;2927;49.366;8.530;2023-02-24T07:46:27;8.20;1.00
5802;DHT22;2927;49.366;8.530;2023-02-24T07:48:55;8.30;1.00
5802;DHT22;2927;49.366;8.530;2023-02-24T07:51:25;8.20;1.00
5802;DHT22;2927;49.366;8.530;2023-02-24T07:53:54;8.10;1.00
5802;DHT22;2927;49.366;8.530;2023-02-24T07:56:22;8.10;1.00
5802;DHT22;2927;49.366;8.530;2023-02-24T07:59:01;8.20;1.00
5802;DHT22;2927;49.366;8.530;2023-02-24T08:01:29;8.30;1.00
5802;DHT22;2927;49.366;8.530;2023-02-24T08:04:00;8.30;1.00
5802;DHT22;2927;49.366;8.530;2023-02-24T08:06:32;8.40;1.00
5802;DHT22;2927;49.366;8.530;2023-02-24T08:09:13;8.40;1.00
5802;DHT22;2927;49.366;8.530;2023-02-24T08:11:43;8.30;1.00
5802;DHT22;2927;49.366;8.530;2023-02-24T08:14:14;8.40;1.00
5802;DHT22;2927;49.366;8.530;2023-02-24T08:16:45;8.40;1.00
5802;DHT22;2927;49.366;8.530;2023-02-24T08:19:16;8.40;1.00
5802;DHT22;2927;49.366;8.530;2023-02-24T08:21:51;8.30;1.00
5802;DHT22;2927;49.366;8.530;2023-02-24T08:24:19;8.40;1.00
5802;DHT22;2927;49.366;8.530;2023-02-24T08:26:50;8.40;1.00
5802;DHT22;2927;49.366;8.530;2023-02-24T08:29:35;8.40;1.00
5802;DHT22;2927;49.366;8.530;2023-02-24T08:32:05;8.40;1.00
5802;DHT22;2927;49.366;8.530;2023-02-24T08:34:33;8.60;1.00
5802;DHT22;2927;49.366;8.530;2023-02-24T08:36:59;8.40;1.00
5802;DHT22;2927;49.366;8.530;2023-02-24T08:39:26;8.30;1.00
5802;DHT22;2927;49.366;8.530;2023-02-24T08:41:56;8.30;1.00
5802;DHT22;2927;49.366;8.530;2023-02-24T08:44:21;8.50;1.00
5802;DHT22;2927;49.366;8.530;2023-02-24T08:46:48;8.40;1.00
5802;DHT22;2927;49.366;8.530;2023-02-24T08:49:15;8.50;1.00
5802;DHT22;2927;49.366;8.530;2023-02-24T08:51:46;8.60;99.90
5802;DHT22;2927;49.366;8.530;2023-02-24T08:56:42;8.90;1.00
5802;DHT22;2927;49.366;8.530;2023-02-24T08:59:12;8.90;1.00
5802;DHT22;2927;49.366;8.530;2023-02-24T09:01:57;8.90;1.00
5802;DHT22;2927;49.366;8.530;2023-02-24T09:04:47;9.00;99.90
5802;DHT22;2927;49.366;8.530;2023-02-24T09:07:15;9.10;1.00
5802;DHT22;2927;49.366;8.530;2023-02-24T09:09:41;9.00;1.00
5802;DHT22;2927;49.366;8.530;2023-02-24T09:12:09;9.10;1.00
5802;DHT22;2927;49.366;8.530;2023-02-24T09:14:48;9.00;99.90
5802;DHT22;2927;49.366;8.530;2023-02-24T09:17:15;9.20;1.00
5802;DHT22;2927;49.366;8.530;2023-02-24T09:19:49;9.20;1.00
5802;DHT22;2927;49.366;8.530;2023-02-24T09:22:20;9.20;1.00
5802;DHT22;2927;49.366;8.530;2023-02-24T09:25:25;9.20;1.00
5802;DHT22;2927;49.366;8.530;2023-02-24T09:28:15;9.60;1.00
5802;DHT22;2927;49.366;8.530;2023-02-24T09:30:47;9.60;1.00
5802;DHT22;2927;49.366;8.530;2023-02-24T09:33:29;9.70;1.00
5802;DHT22;2927;49.366;8.530;2023-02-24T09:38:46;9.70;99.90
5802;DHT22;2927;49.366;8.530;2023-02-24T09:41:48;9.50;1.00
5802;DHT22;2927;49.366;8.530;2023-02-24T09:44:36;9.60;1.00
5802;DHT22;2927;49.366;8.530;2023-02-24T09:47:25;10.00;1.00
5802;DHT22;2927;49.366;8.530;2023-02-24T09:53:12;9.70;1.00
5802;DHT22;2927;49.366;8.530;2023-02-24T09:55:54;9.70;1.00
5802;DHT22;2927;49.366;8.530;2023-02-24T09:58:51;9.50;1.00
5802;DHT22;2927;49.366;8.530;2023-02-24T10:01:30;9.60;1.00
5802;DHT22;2927;49.366;8.530;2023-02-24T10:07:06;9.50;1.00
5802;DHT22;2927;49.366;8.530;2023-02-24T10:09:47;9.90;1.00
5802;DHT22;2927;49.366;8.530;2023-02-24T10:12:17;10.10;1.00
5802;DHT22;2927;49.366;8.530;2023-02-24T10:15:04;10.00;1.00
5802;DHT22;2927;49.366;8.530;2023-02-24T10:18:45;10.20;99.90
5802;DHT22;2927;49.366;8.530;2023-02-24T10:21:23;10.70;1.00
5802;DHT22;2927;49.366;8.530;2023-02-24T10:26:49;10.90;1.00
5802;DHT22;2927;49.366;8.530;2023-02-24T10:29:47;10.80;99.90
5802;DHT22;2927;49.366;8.530;2023-02-24T10:35:17;10.90;99.90
5802;DHT22;2927;49.366;8.530;2023-02-24T10:37:43;11.20;99.90
5802;DHT22;2927;49.366;8.530;2023-02-24T10:40:10;11.30;1.00
5802;DHT22;2927;49.366;8.530;2023-02-24T10:42:38;11.40;99.90
5802;DHT22;2927;49.366;8.530;2023-02-24T10:45:15;11.50;99.90
5802;DHT22;2927;49.366;8.530;2023-02-24T10:47:51;11.60;1.00
5802;DHT22;2927;49.366;8.530;2023-02-24T10:50:32;11.90;1.00
5802;DHT22;2927;49.366;8.530;2023-02-24T10:53:14;11.90;1.00
5802;DHT22;2927;49.366;8.530;2023-02-24T10:55:55;12.10;1.00
5802;DHT22;2927;49.366;8.530;2023-02-24T10:58:41;11.90;1.00
5802;DHT22;2927;49.366;8.530;2023-02-24T11:01:29;11.70;1.00
5802;DHT22;2927;49.366;8.530;2023-02-24T11:04:16;11.90;1.00
5802;DHT22;2927;49.366;8.530;2023-02-24T11:07:13;11.80;1.00
5802;DHT22;2927;49.366;8.530;2023-02-24T11:10:01;12.00;1.00
5802;DHT22;2927;49.366;8.530;2023-02-24T11:12:42;11.90;1.00
5802;DHT22;2927;49.366;8.530;2023-02-24T11:15:48;12.00;41.80
5802;DHT22;2927;49.366;8.530;2023-02-24T11:18:34;12.30;1.00
5802;DHT22;2927;49.366;8.530;2023-02-24T11:21:03;12.30;1.00
5802;DHT22;2927;49.366;8.530;2023-02-24T11:23:38;12.30;1.00
5802;DHT22;2927;49.366;8.530;2023-02-24T11:26:14;12.30;1.00
5802;DHT22;2927;49.366;8.530;2023-02-24T11:28:59;12.20;1.00
5802;DHT22;2927;49.366;8.530;2023-02-24T11:37:42;12.20;1.00
5802;DHT22;2927;49.366;8.530;2023-02-24T11:48:20;12.30;1.00
5802;DHT22;2927;49.366;8.530;2023-02-24T11:51:06;12.20;1.00
5802;DHT22;2927;49.366;8.530;2023-02-24T11:53:54;12.20;1.00
5802;DHT22;2927;49.366;8.530;2023-02-24T11:56:33;12.40;1.00
5802;DHT22;2927;49.366;8.530;2023-02-24T11:59:01;12.60;1.00
5802;DHT22;2927;49.366;8.530;2023-02-24T12:01:37;12.60;1.00
5802;DHT22;2927;49.366;8.530;2023-02-24T12:09:40;13.40;99.90
5802;DHT22;2927;49.366;8.530;2023-02-24T12:12:19;12.90;1.00
5802;DHT22;2927;49.366;8.530;2023-02-24T12:14:56;12.60;1.00
5802;DHT22;2927;49.366;8.530;2023-02-24T12:17:52;13.00;1.00
5802;DHT22;2927;49.366;8.530;2023-02-24T12:20:28;13.20;1.00
5802;DHT22;2927;49.366;8.530;2023-02-24T12:23:19;13.00;1.00
5802;DHT22;2927;49.366;8.530;2023-02-24T12:26:14;13.10;1.00
5802;DHT22;2927;49.366;8.530;2023-02-24T12:29:03;12.50;1.00
5802;DHT22;2927;49.366;8.530;2023-02-24T12:37:28;12.60;1.00
5802;DHT22;2927;49.366;8.530;2023-02-24T12:42:59;12.60;1.00
5802;DHT22;2927;49.366;8.530;2023-02-24T12:45:48;12.50;1.00
5802;DHT22;2927;49.366;8.530;2023-02-24T12:51:33;12.60;1.00
5802;DHT22;2927;49.366;8.530;2023-02-24T12:56:43;12.70;1.00
5802;DHT22;2927;49.366;8.530;2023-02-24T12:59:15;12.80;99.90
5802;DHT22;2927;49.366;8.530;2023-02-24T13:01:52;12.80;99.90
5802;DHT22;2927;49.366;8.530;2023-02-24T13:13:09;12.80;81.10
5802;DHT22;2927;49.366;8.530;2023-02-24T13:15:51;12.70;99.90
5802;DHT22;2927;49.366;8.530;2023-02-24T13:18:26;12.50;96.20
5802;DHT22;2927;49.366;8.530;2023-02-24T13:23:28;12.70;1.00
5802;DHT22;2927;49.366;8.530;2023-02-24T13:25:56;12.60;1.00
5802;DHT22;2927;49.366;8.530;2023-02-24T13:28:33;12.60;99.90
5802;DHT22;2927;49.366;8.530;2023-02-24T13:33:30;12.80;99.90
5802;DHT22;2927;49.366;8.530;2023-02-24T13:36:17;12.90;99.90
5802;DHT22;2927;49.366;8.530;2023-02-24T13:39:07;13.00;1.00
5802;DHT22;2927;49.366;8.530;2023-02-24T13:41:44;13.20;99.90
5802;DHT22;2927;49.366;8.530;2023-02-24T13:44:27;13.30;99.90
5802;DHT22;2927;49.366;8.530;2023-02-24T13:47:12;13.10;99.90
5802;DHT22;2927;49.366;8.530;2023-02-24T13:50:03;13.10;99.90
5802;DHT22;2927;49.366;8.530;2023-02-24T13:52:36;13.20;78.80
5802;DHT22;2927;49.366;8.530;2023-02-24T13:58:17;13.10;99.90
5802;DHT22;2927;49.366;8.530;2023-02-24T14:00:57;13.10;90.40
5802;DHT22;2927;49.366;8.530;2023-02-24T14:03:27;12.80;99.90
5802;DHT22;2927;49.366;8.530;2023-02-24T14:05:53;12.80;96.80
5802;DHT22;2927;49.366;8.530;2023-02-24T14:08:37;12.80;99.90
5802;DHT22;2927;49.366;8.530;2023-02-24T14:11:06;12.80;99.90
5802;DHT22;2927;49.366;8.530;2023-02-24T14:13:34;12.80;66.20
5802;DHT22;2927;49.366;8.530;2023-02-24T14:16:06;13.00;1.00
5802;DHT22;2927;49.366;8.530;2023-02-24T14:18:32;13.30;1.00
5802;DHT22;2927;49.366;8.530;2023-02-24T14:20:57;13.70;1.00
5802;DHT22;2927;49.366;8.530;2023-02-24T14:23:31;13.70;1.00
5802;DHT22;2927;49.366;8.530;2023-02-24T14:26:04;13.70;1.00
5802;DHT22;2927;49.366;8.530;2023-02-24T14:28:32;13.90;1.00
5802;DHT22;2927;49.366;8.530;2023-02-24T14:31:03;13.90;1.00
5802;DHT22;2927;49.366;8.530;2023-02-24T14:33:34;13.60;1.00
5802;DHT22;2927;49.366;8.530;2023-02-24T14:36:02;13.20;1.00
5802;DHT22;2927;49.366;8.530;2023-02-24T14:38:35;13.00;1.00
5802;DHT22;2927;49.366;8.530;2023-02-24T14:41:21;12.90;1.00
5802;DHT22;2927;49.366;8.530;2023-02-24T14:43:48;12.90;1.00
5802;DHT22;2927;49.366;8.530;2023-02-24T14:46:13;12.90;1.00
5802;DHT22;2927;49.366;8.530;2023-02-24T14:48:42;12.80;99.90
5802;DHT22;2927;49.366;8.530;2023-02-24T14:51:30;12.80;99.90
5802;DHT22;2927;49.366;8.530;2023-02-24T14:54:00;12.80;99.90
5802;DHT22;2927;49.366;8.530;2023-02-24T14:56:30;12.90;99.90
5802;DHT22;2927;49.366;8.530;2023-02-24T14:59:21;13.00;1.00
5802;DHT22;2927;49.366;8.530;2023-02-24T15:01:49;12.90;99.90
5802;DHT22;2927;49.366;8.530;2023-02-24T15:04:38;12.80;1.00
5802;DHT22;2927;49.366;8.530;2023-02-24T15:07:15;12.70;1.00
5802;DHT22;2927;49.366;8.530;2023-02-24T15:09:43;12.60;90.80
5802;DHT22;2927;49.366;8.530;2023-02-24T15:14:37;12.60;1.00
5802;DHT22;2927;49.366;8.530;2023-02-24T15:17:14;12.60;1.00
5802;DHT22;2927;49.366;8.530;2023-02-24T15:19:42;12.50;44.10
5802;DHT22;2927;49.366;8.530;2023-02-24T15:22:23;12.60;83.20
5802;DHT22;2927;49.366;8.530;2023-02-24T15:24:52;12.60;1.00
5802;DHT22;2927;49.366;8.530;2023-02-24T15:27:26;12.50;1.00
5802;DHT22;2927;49.366;8.530;2023-02-24T15:30:05;12.20;99.90
5802;DHT22;2927;49.366;8.530;2023-02-24T15:32:34;12.10;99.90
5802;DHT22;2927;49.366;8.530;2023-02-24T15:35:01;12.00;1.00
5802;DHT22;2927;49.366;8.530;2023-02-24T15:37:38;12.10;1.00
5802;DHT22;2927;49.366;8.530;2023-02-24T15:40:26;11.90;1.00
5802;DHT22;2927;49.366;8.530;2023-02-24T15:43:08;11.80;1.00
5802;DHT22;2927;49.366;8.530;2023-02-24T15:45:36;11.70;1.00
5802;DHT22;2927;49.366;8.530;2023-02-24T15:48:22;11.60;1.00
5802;DHT22;2927;49.366;8.530;2023-02-24T15:50:49;11.60;1.00
5802;DHT22;2927;49.366;8.530;2023-02-24T15:53:14;11.60;1.00
5802;DHT22;2927;49.366;8.530;2023-02-24T15:55:41;11.40;1.00
5802;DHT22;2927;49.366;8.530;2023-02-24T15:58:16;11.30;1.00
5802;DHT22;2927;49.366;8.530;2023-02-24T16:00:42;11.30;1.00
5802;DHT22;2927;49.366;8.530;2023-02-24T16:03:10;11.20;1.00
5802;DHT22;2927;49.366;8.530;2023-02-24T16:05:35;11.20;1.00
5802;DHT22;2927;49.366;8.530;2023-02-24T16:08:01;11.20;1.00
5802;DHT22;2927;49.366;8.530;2023-02-24T16:10:28;11.20;1.00
5802;DHT22;2927;49.366;8.530;2023-02-24T16:12:56;11.20;1.00
5802;DHT22;2927;49.366;8.530;2023-02-24T16:15:32;11.10;1.00
5802;DHT22;2927;49.366;8.530;2023-02-24T16:17:58;11.00;1.00
5802;DHT22;2927;49.366;8.530;2023-02-24T16:20:28;11.00;1.00
5802;DHT22;2927;49.366;8.530;2023-02-24T16:23:02;10.90;1.00
5802;DHT22;2927;49.366;8.530;2023-02-24T16:25:30;10.90;1.00
5802;DHT22;2927;49.366;8.530;2023-02-24T16:27:56;10.90;1.00
5802;DHT22;2927;49.366;8.530;2023-02-24T16:30:25;10.90;1.00
5802;DHT22;2927;49.366;8.530;2023-02-24T16:32:51;10.90;1.00
5802;DHT22;2927;49.366;8.530;2023-02-24T16:35:17;10.90;1.00
5802;DHT22;2927;49.366;8.530;2023-02-24T16:37:45;10.80;1.00
5802;DHT22;2927;49.366;8.530;2023-02-24T16:42:42;10.70;1.00
5802;DHT22;2927;49.366;8.530;2023-02-24T16:45:09;10.70;1.00
5802;DHT22;2927;49.366;8.530;2023-02-24T16:47:35;10.60;1.00
5802;DHT22;2927;49.366;8.530;2023-02-24T16:50:01;10.50;1.00
5802;DHT22;2927;49.366;8.530;2023-02-24T16:52:26;10.50;1.00
5802;DHT22;2927;49.366;8.530;2023-02-24T16:54:53;10.40;1.00
5802;DHT22;2927;49.366;8.530;2023-02-24T16:57:19;10.40;1.00
5802;DHT22;2927;49.366;8.530;2023-02-24T16:59:50;10.40;1.00
5802;DHT22;2927;49.366;8.530;2023-02-24T17:02:18;10.30;1.00
5802;DHT22;2927;49.366;8.530;2023-02-24T17:04:45;10.30;1.00
5802;DHT22;2927;49.366;8.530;2023-02-24T17:07:10;10.30;1.00
5802;DHT22;2927;49.366;8.530;2023-02-24T17:09:36;10.30;1.00
5802;DHT22;2927;49.366;8.530;2023-02-24T17:12:01;10.30;1.00
5802;DHT22;2927;49.366;8.530;2023-02-24T17:14:27;10.30;1.00
5802;DHT22;2927;49.366;8.530;2023-02-24T17:16:52;10.20;1.00
5802;DHT22;2927;49.366;8.530;2023-02-24T17:19:18;10.20;1.00
5802;DHT22;2927;49.366;8.530;2023-02-24T17:21:44;10.10;1.00
5802;DHT22;2927;49.366;8.530;2023-02-24T17:24:17;10.10;1.00
5802;DHT22;2927;49.366;8.530;2023-02-24T17:26:43;10.10;1.00
5802;DHT22;2927;49.366;8.530;2023-02-24T17:29:10;10.10;1.00
5802;DHT22;2927;49.366;8.530;2023-02-24T17:31:36;10.00;1.00
5802;DHT22;2927;49.366;8.530;2023-02-24T17:34:02;10.00;1.00
5802;DHT22;2927;49.366;8.530;2023-02-24T17:36:27;9.90;1.00
5802;DHT22;2927;49.366;8.530;2023-02-24T17:38:53;9.90;1.00
5802;DHT22;2927;49.366;8.530;2023-02-24T17:41:21;9.90;1.00
5802;DHT22;2927;49.366;8.530;2023-02-24T17:43:52;9.80;1.00
5802;DHT22;2927;49.366;8.530;2023-02-24T17:46:18;9.80;1.00
5802;DHT22;2927;49.366;8.530;2023-02-24T17:48:44;9.80;1.00
5802;DHT22;2927;49.366;8.530;2023-02-24T17:51:17;9.80;1.00
5802;DHT22;2927;49.366;8.530;2023-02-24T17:53:43;9.80;1.00
5802;DHT22;2927;49.366;8.530;2023-02-24T17:56:09;9.70;1.00
5802;DHT22;2927;49.366;8.530;2023-02-24T17:58:35;9.70;1.00
5802;DHT22;2927;49.366;8.530;2023-02-24T18:01:02;9.70;1.00
5802;DHT22;2927;49.366;8.530;2023-02-24T18:03:28;9.60;1.00
5802;DHT22;2927;49.366;8.530;2023-02-24T18:06:02;9.60;1.00
5802;DHT22;2927;49.366;8.530;2023-02-24T18:08:28;9.60;1.00
5802;DHT22;2927;49.366;8.530;2023-02-24T18:10:55;9.60;1.00
5802;DHT22;2927;49.366;8.530;2023-02-24T18:13:21;9.60;1.00
5802;DHT22;2927;49.366;8.530;2023-02-24T18:15:47;9.60;1.00
5802;DHT22;2927;49.366;8.530;2023-02-24T18:18:12;9.60;1.00
5802;DHT22;2927;49.366;8.530;2023-02-24T18:20:41;9.60;1.00
5802;DHT22;2927;49.366;8.530;2023-02-24T18:23:07;9.50;1.00
5802;DHT22;2927;49.366;8.530;2023-02-24T18:25:33;9.50;1.00
5802;DHT22;2927;49.366;8.530;2023-02-24T18:27:59;9.50;1.00
5802;DHT22;2927;49.366;8.530;2023-02-24T18:30:24;9.50;1.00
5802;DHT22;2927;49.366;8.530;2023-02-24T18:32:50;9.50;1.00
5802;DHT22;2927;49.366;8.530;2023-02-24T18:35:16;9.50;1.00
5802;DHT22;2927;49.366;8.530;2023-02-24T18:37:48;9.50;1.00
5802;DHT22;2927;49.366;8.530;2023-02-24T18:40:21;9.50;1.00
5802;DHT22;2927;49.366;8.530;2023-02-24T18:42:48;9.40;1.00
5802;DHT22;2927;49.366;8.530;2023-02-24T18:45:13;9.40;1.00
5802;DHT22;2927;49.366;8.530;2023-02-24T18:47:39;9.40;1.00